East China Township, Michigan
Current Conditions -  °F | °C
As of 9:38 AM on Thursday 29 Jan 2015 (Local Time) from KPHN Reporting Station
Light Snow Light Snow  
Wind Chill: 20°   Ceiling: 4200
Heat Index: 28°   Visibility: 5mi
Dew Point: 21°   Wind: 9mph
Humidity: 74%   Direction: 160°SSE
Pressure: 29.8"   Gusts: 18mph
Location:  42.7808°N, 82.6288°W
Report Text: KPHN 291438Z AUTO 16008G16KT 5SM -SN OVC042 M02/M06 A2980 RMK AO2
Loading
Personal Weather Stations






























Interactive Weather Map New forecast layout! Learn more

10-Day Weather Forecast

Advertisements
Track Severe Weather on mobile